Wetterdaten: Dienstag, 15.12.2015
Datum Zeit Auen-Temp. Temp gefhlt Luftfeuchte Luftdruck Regen Wind Richtung Richtung Taupunkt Windben
15.12.2015 00:00 -3,1 C -3,5 C 83 % 1024,6 hPa 0,0 mm 0,0 km/h (0 Bft) NW 315 -5,6 C 0,0 km/h (0 Bft)
15.12.2015 00:05 -3,0 C -3,4 C 83 % 1024,6 hPa 0,0 mm 0,0 km/h (0 Bft) NW 315 -5,5 C 0,0 km/h (0 Bft)
15.12.2015 00:10 -2,6 C -3,1 C 78 % 1024,6 hPa 0,0 mm 0,3 km/h (0 Bft) O-NO 67 -5,9 C 3,9 km/h (1 Bft)
15.12.2015 00:15 -2,8 C -3,2 C 84 % 1024,7 hPa 0,0 mm 0,5 km/h (0 Bft) NO 45 -5,1 C 0,0 km/h (0 Bft)
15.12.2015 00:20 -2,5 C -3,0 C 84 % 1024,7 hPa 0,0 mm 0,3 km/h (0 Bft) NO 45 -4,8 C 0,0 km/h (0 Bft)
15.12.2015 00:25 -2,4 C -2,9 C 85 % 1024,7 hPa 0,0 mm 0,0 km/h (0 Bft) NO 45 -4,6 C 0,0 km/h (0 Bft)
15.12.2015 00:31 -2,6 C -3,0 C 84 % 1024,7 hPa 0,0 mm 0,0 km/h (0 Bft) NO 45 -4,9 C 0,0 km/h (0 Bft)
15.12.2015 00:35 -2,7 C -3,0 C 84 % 1024,7 hPa 0,0 mm 0,0 km/h (0 Bft) NO 45 -5,0 C 0,0 km/h (0 Bft)
15.12.2015 00:40 -2,8 C -3,1 C 84 % 1024,7 hPa 0,0 mm 0,0 km/h (0 Bft) NO 45 -5,1 C 0,0 km/h (0 Bft)
15.12.2015 00:45 -2,8 C -3,2 C 84 % 1024,7 hPa 0,0 mm 0,0 km/h (0 Bft) O-NO 67 -5,1 C 0,0 km/h (0 Bft)
15.12.2015 00:50 -2,9 C -3,2 C 84 % 1024,7 hPa 0,0 mm 0,0 km/h (0 Bft) O-NO 67 -5,2 C 0,0 km/h (0 Bft)
15.12.2015 00:55 -2,8 C -3,2 C 84 % 1024,7 hPa 0,0 mm 0,0 km/h (0 Bft) NO 45 -5,1 C 0,0 km/h (0 Bft)
15.12.2015 01:00 -2,7 C -3,1 C 84 % 1024,7 hPa 0,0 mm 0,0 km/h (0 Bft) O-NO 67 -5,0 C 0,0 km/h (0 Bft)
15.12.2015 01:05 -2,8 C -3,2 C 84 % 1024,7 hPa 0,0 mm 0,0 km/h (0 Bft) O-NO 67 -5,1 C 0,0 km/h (0 Bft)
15.12.2015 01:10 -2,4 C -2,9 C 84 % 1024,7 hPa 0,0 mm 0,0 km/h (0 Bft) O-NO 67 -4,7 C 0,0 km/h (0 Bft)
15.12.2015 01:15 -2,5 C -2,9 C 79 % 1024,8 hPa 0,0 mm 0,0 km/h (0 Bft) O-NO 67 -5,6 C 0,0 km/h (0 Bft)
15.12.2015 01:20 -2,6 C -3,0 C 84 % 1024,8 hPa 0,0 mm 0,0 km/h (0 Bft) O-NO 67 -4,9 C 0,0 km/h (0 Bft)
15.12.2015 01:25 -3,0 C -3,3 C 84 % 1024,8 hPa 0,0 mm 0,0 km/h (0 Bft) O-NO 67 -5,3 C 0,0 km/h (0 Bft)
15.12.2015 01:30 -2,5 C -3,0 C 84 % 1024,8 hPa 0,0 mm 0,0 km/h (0 Bft) O-NO 67 -4,8 C 0,0 km/h (0 Bft)
15.12.2015 01:35 -2,1 C -2,7 C 85 % 1025,2 hPa 0,0 mm 0,0 km/h (0 Bft) O-NO 67 -4,3 C 0,0 km/h (0 Bft)
15.12.2015 01:40 -2,4 C -2,9 C 84 % 1025,2 hPa 0,0 mm 0,0 km/h (0 Bft) O-NO 67 -4,7 C 2,8 km/h (1 Bft)
15.12.2015 01:45 -2,4 C -2,8 C 84 % 1025,2 hPa 0,0 mm 0,0 km/h (0 Bft) O-NO 67 -4,7 C 0,0 km/h (0 Bft)
15.12.2015 01:50 -2,3 C -2,7 C 85 % 1025,2 hPa 0,0 mm 0,0 km/h (0 Bft) O-NO 67 -4,5 C 0,0 km/h (0 Bft)
15.12.2015 01:55 -2,3 C -2,7 C 85 % 1024,9 hPa 0,0 mm 0,0 km/h (0 Bft) O-NO 67 -4,5 C 0,0 km/h (0 Bft)
15.12.2015 02:00 -2,4 C -2,8 C 84 % 1024,9 hPa 0,0 mm 0,0 km/h (0 Bft) N-NO 22 -4,7 C 0,0 km/h (0 Bft)
15.12.2015 02:05 -2,6 C -2,9 C 84 % 1024,9 hPa 0,0 mm 0,0 km/h (0 Bft) O-NO 67 -4,9 C 0,0 km/h (0 Bft)
15.12.2015 02:10 -2,6 C -2,9 C 84 % 1024,9 hPa 0,0 mm 0,0 km/h (0 Bft) N 360 -4,9 C 0,0 km/h (0 Bft)
15.12.2015 02:15 -2,6 C -2,9 C 84 % 1025,0 hPa 0,0 mm 0,3 km/h (0 Bft) N-NO 22 -4,9 C 0,0 km/h (0 Bft)
15.12.2015 02:20 -2,6 C -2,9 C 84 % 1025,0 hPa 0,0 mm 0,3 km/h (0 Bft) O-NO 67 -4,9 C 0,0 km/h (0 Bft)
15.12.2015 02:25 -2,5 C -2,8 C 79 % 1025,0 hPa 0,0 mm 0,0 km/h (0 Bft) O-NO 67 -5,6 C 0,0 km/h (0 Bft)
15.12.2015 02:30 -2,6 C -2,9 C 84 % 1025,0 hPa 0,0 mm 0,0 km/h (0 Bft) NO 45 -4,9 C 0,0 km/h (0 Bft)
15.12.2015 02:35 -2,6 C -3,0 C 85 % 1024,9 hPa 0,0 mm 0,0 km/h (0 Bft) N-NO 22 -4,8 C 0,0 km/h (0 Bft)
15.12.2015 02:40 -2,6 C -3,0 C 85 % 1024,9 hPa 0,0 mm 0,0 km/h (0 Bft) O-NO 67 -4,8 C 0,0 km/h (0 Bft)
15.12.2015 02:45 -2,8 C -3,1 C 84 % 1024,9 hPa 0,0 mm 0,0 km/h (0 Bft) N-NO 22 -5,1 C 0,0 km/h (0 Bft)
15.12.2015 02:50 -2,4 C -2,8 C 85 % 1024,9 hPa 0,0 mm 0,0 km/h (0 Bft) O-NO 67 -4,6 C 0,0 km/h (0 Bft)
15.12.2015 02:55 -2,8 C -3,1 C 84 % 1024,9 hPa 0,0 mm 0,0 km/h (0 Bft) O-NO 67 -5,1 C 0,0 km/h (0 Bft)
15.12.2015 03:00 -2,3 C -2,8 C 85 % 1024,9 hPa 0,0 mm 0,0 km/h (0 Bft) NO 45 -4,5 C 0,0 km/h (0 Bft)
15.12.2015 03:05 -2,5 C -2,9 C 85 % 1024,9 hPa 0,0 mm 0,0 km/h (0 Bft) NO 45 -4,7 C 0,0 km/h (0 Bft)
15.12.2015 03:10 -2,6 C -3,0 C 85 % 1024,9 hPa 0,0 mm 0,0 km/h (0 Bft) N-NO 22 -4,8 C 0,0 km/h (0 Bft)
15.12.2015 03:15 -2,8 C -3,1 C 85 % 1025,0 hPa 0,0 mm 0,0 km/h (0 Bft) N-NO 22 -5,0 C 0,0 km/h (0 Bft)
15.12.2015 03:20 -3,0 C -3,3 C 84 % 1025,0 hPa 0,0 mm 0,0 km/h (0 Bft) N-NO 22 -5,3 C 0,0 km/h (0 Bft)
15.12.2015 03:25 -3,1 C -3,4 C 84 % 1025,0 hPa 0,0 mm 0,0 km/h (0 Bft) N-NO 22 -5,4 C 0,0 km/h (0 Bft)
15.12.2015 03:30 -2,8 C -3,2 C 85 % 1025,0 hPa 0,0 mm 0,0 km/h (0 Bft) N-NO 22 -5,0 C 0,0 km/h (0 Bft)
15.12.2015 03:35 -2,8 C -3,2 C 85 % 1024,9 hPa 0,0 mm 0,0 km/h (0 Bft) N-NO 22 -5,0 C 0,0 km/h (0 Bft)
15.12.2015 03:40 -2,9 C -3,2 C 85 % 1024,9 hPa 0,0 mm 0,0 km/h (0 Bft) N-NO 22 -5,1 C 0,0 km/h (0 Bft)
15.12.2015 03:45 -2,8 C -3,1 C 85 % 1024,9 hPa 0,0 mm 0,0 km/h (0 Bft) N-NO 22 -5,0 C 0,0 km/h (0 Bft)
15.12.2015 03:50 -3,0 C -3,2 C 85 % 1024,9 hPa 0,0 mm 0,0 km/h (0 Bft) N-NW 337 -5,2 C 0,0 km/h (0 Bft)
15.12.2015 03:55 -2,8 C -3,1 C 85 % 1024,9 hPa 0,0 mm 0,0 km/h (0 Bft) N-NW 337 -5,0 C 0,0 km/h (0 Bft)
15.12.2015 04:00 -2,8 C -3,1 C 85 % 1024,9 hPa 0,0 mm 0,0 km/h (0 Bft) N-NO 22 -5,0 C 0,0 km/h (0 Bft)
15.12.2015 04:05 -3,0 C -3,3 C 85 % 1024,9 hPa 0,0 mm 0,0 km/h (0 Bft) N-NO 22 -5,2 C 0,0 km/h (0 Bft)
15.12.2015 04:10 -3,3 C -3,5 C 85 % 1024,9 hPa 0,0 mm 0,0 km/h (0 Bft) N-NO 22 -5,5 C 0,0 km/h (0 Bft)
15.12.2015 04:15 -3,2 C -3,4 C 85 % 1024,8 hPa 0,0 mm 0,0 km/h (0 Bft) N-NO 22 -5,4 C 0,0 km/h (0 Bft)
15.12.2015 04:20 -3,2 C -3,4 C 85 % 1024,8 hPa 0,0 mm 0,0 km/h (0 Bft) N-NO 22 -5,4 C 0,0 km/h (0 Bft)
15.12.2015 04:25 -3,4 C -3,6 C 85 % 1024,8 hPa 0,0 mm 0,0 km/h (0 Bft) N-NO 22 -5,5 C 0,0 km/h (0 Bft)
15.12.2015 04:30 -3,5 C -3,6 C 85 % 1024,8 hPa 0,0 mm 0,0 km/h (0 Bft) N-NW 337 -5,6 C 0,0 km/h (0 Bft)
15.12.2015 04:35 -3,4 C -3,6 C 85 % 1024,9 hPa 0,0 mm 0,0 km/h (0 Bft) O-NO 67 -5,5 C 0,0 km/h (0 Bft)
15.12.2015 04:40 -3,0 C -3,3 C 85 % 1024,9 hPa 0,0 mm 0,0 km/h (0 Bft) O-NO 67 -5,2 C 0,0 km/h (0 Bft)
15.12.2015 04:45 -3,1 C -3,4 C 85 % 1024,9 hPa 0,0 mm 0,0 km/h (0 Bft) O-NO 67 -5,3 C 0,0 km/h (0 Bft)
15.12.2015 04:50 -3,3 C -3,5 C 85 % 1024,9 hPa 0,0 mm 0,0 km/h (0 Bft) N-NW 337 -5,5 C 0,0 km/h (0 Bft)
15.12.2015 04:55 -2,6 C -3,1 C 86 % 1025,0 hPa 0,0 mm 0,0 km/h (0 Bft) O-NO 67 -4,6 C 0,0 km/h (0 Bft)
15.12.2015 05:00 -2,9 C -3,2 C 86 % 1025,0 hPa 0,0 mm 0,0 km/h (0 Bft) O-NO 67 -4,9 C 0,0 km/h (0 Bft)
15.12.2015 05:05 -3,1 C -3,3 C 86 % 1025,0 hPa 0,0 mm 0,0 km/h (0 Bft) O-NO 67 -5,1 C 0,0 km/h (0 Bft)
15.12.2015 05:10 -2,6 C -2,8 C 86 % 1025,0 hPa 0,0 mm 0,8 km/h (0 Bft) N-NW 337 -4,6 C 5,7 km/h (1 Bft)
15.12.2015 05:15 -2,9 C -3,0 C 86 % 1025,0 hPa 0,0 mm 0,8 km/h (0 Bft) N 360 -4,9 C 0,0 km/h (0 Bft)
15.12.2015 05:20 -2,4 C -2,7 C 87 % 1025,0 hPa 0,0 mm 0,3 km/h (0 Bft) O-NO 67 -4,3 C 0,0 km/h (0 Bft)
15.12.2015 05:25 -2,8 C -3,0 C 86 % 1025,0 hPa 0,0 mm 0,0 km/h (0 Bft) NO 45 -4,8 C 0,0 km/h (0 Bft)
15.12.2015 05:30 -2,5 C -2,8 C 87 % 1025,0 hPa 0,0 mm 0,3 km/h (0 Bft) W-SW 247 -4,4 C 0,0 km/h (0 Bft)
15.12.2015 05:35 -2,2 C -2,5 C 87 % 1025,2 hPa 0,0 mm 0,3 km/h (0 Bft) S 180 -4,1 C 0,0 km/h (0 Bft)
15.12.2015 05:40 -2,3 C -2,6 C 87 % 1025,2 hPa 0,0 mm 0,0 km/h (0 Bft) SO 135 -4,2 C 0,0 km/h (0 Bft)
15.12.2015 05:45 -2,2 C -2,5 C 87 % 1025,2 hPa 0,0 mm 0,0 km/h (0 Bft) S-SO 157 -4,1 C 0,0 km/h (0 Bft)
15.12.2015 05:50 -1,3 C -1,5 C 82 % 1025,2 hPa 0,0 mm 0,8 km/h (0 Bft) SO 135 -4,0 C 3,1 km/h (1 Bft)
15.12.2015 05:55 -0,6 C -1,0 C 82 % 1024,9 hPa 0,0 mm 0,8 km/h (0 Bft) SO 135 -3,3 C 3,4 km/h (1 Bft)
15.12.2015 06:00 0,0 C -0,7 C 88 % 1024,9 hPa 0,0 mm 0,5 km/h (0 Bft) SO 135 -1,7 C 0,0 km/h (0 Bft)
15.12.2015 06:05 0,2 C -0,5 C 88 % 1024,9 hPa 0,0 mm 0,3 km/h (0 Bft) SO 135 -1,5 C 0,0 km/h (0 Bft)
15.12.2015 06:10 -1,1 C -1,4 C 87 % 1024,9 hPa 0,0 mm 0,0 km/h (0 Bft) SO 135 -3,0 C 0,0 km/h (0 Bft)
15.12.2015 06:15 -1,5 C -1,7 C 86 % 1024,8 hPa 0,0 mm 0,0 km/h (0 Bft) SO 135 -3,5 C 0,0 km/h (0 Bft)
15.12.2015 06:20 -1,8 C -2,0 C 86 % 1024,8 hPa 0,0 mm 0,0 km/h (0 Bft) SO 135 -3,8 C 0,0 km/h (0 Bft)
15.12.2015 06:25 -1,5 C -1,9 C 86 % 1024,8 hPa 0,0 mm 0,0 km/h (0 Bft) SO 135 -3,5 C 0,0 km/h (0 Bft)
15.12.2015 06:30 -2,0 C -2,2 C 85 % 1024,8 hPa 0,0 mm 0,0 km/h (0 Bft) N-NW 337 -4,2 C 3,4 km/h (1 Bft)
15.12.2015 06:32 -2,0 C -2,2 C 85 % 1024,8 hPa 0,0 mm 0,0 km/h (0 Bft) N-NW 337 -4,2 C 3,4 km/h (1 Bft)
15.12.2015 06:35 -1,7 C -2,1 C 86 % 1024,9 hPa 0,0 mm 0,0 km/h (0 Bft) N-NW 337 -3,7 C 0,0 km/h (0 Bft)
15.12.2015 06:40 -1,5 C -2,0 C 86 % 1024,9 hPa 0,0 mm 0,0 km/h (0 Bft) N-NO 22 -3,5 C 0,0 km/h (0 Bft)
15.12.2015 06:45 -1,6 C -2,0 C 86 % 1024,9 hPa 0,0 mm 0,0 km/h (0 Bft) N 360 -3,6 C 0,0 km/h (0 Bft)
15.12.2015 06:50 -1,6 C -2,0 C 86 % 1024,9 hPa 0,0 mm 0,0 km/h (0 Bft) N-NO 22 -3,6 C 0,0 km/h (0 Bft)
15.12.2015 06:55 -1,8 C -2,1 C 86 % 1025,0 hPa 0,0 mm 0,0 km/h (0 Bft) N-NO 22 -3,8 C 0,0 km/h (0 Bft)
15.12.2015 07:00 -2,0 C -2,3 C 86 % 1025,0 hPa 0,0 mm 0,0 km/h (0 Bft) NW 315 -4,0 C 0,0 km/h (0 Bft)
15.12.2015 07:05 -1,7 C -2,1 C 86 % 1025,0 hPa 0,0 mm 0,0 km/h (0 Bft) N-NO 22 -3,7 C 0,0 km/h (0 Bft)
15.12.2015 07:10 -1,8 C -2,1 C 86 % 1025,0 hPa 0,0 mm 0,3 km/h (0 Bft) O-NO 67 -3,8 C 0,0 km/h (0 Bft)
15.12.2015 07:15 -1,7 C -2,0 C 86 % 1025,0 hPa 0,0 mm 0,3 km/h (0 Bft) O-NO 67 -3,7 C 0,0 km/h (0 Bft)
15.12.2015 07:20 -1,8 C -2,1 C 86 % 1025,0 hPa 0,0 mm 0,0 km/h (0 Bft) O-NO 67 -3,8 C 0,0 km/h (0 Bft)
15.12.2015 07:25 -1,7 C -2,1 C 86 % 1025,0 hPa 0,0 mm 0,0 km/h (0 Bft) O-NO 67 -3,7 C 0,0 km/h (0 Bft)
15.12.2015 07:30 -1,7 C -1,9 C 86 % 1025,0 hPa 0,0 mm 0,0 km/h (0 Bft) N-NO 22 -3,7 C 0,0 km/h (0 Bft)
15.12.2015 07:35 -1,7 C -1,9 C 86 % 1024,9 hPa 0,0 mm 0,0 km/h (0 Bft) O-NO 67 -3,7 C 0,0 km/h (0 Bft)
15.12.2015 07:40 -1,5 C -1,7 C 86 % 1024,9 hPa 0,0 mm 0,3 km/h (0 Bft) N-NW 337 -3,5 C 2,8 km/h (1 Bft)
15.12.2015 07:45 -1,3 C -1,5 C 81 % 1024,9 hPa 0,0 mm 0,5 km/h (0 Bft) N-NW 337 -4,1 C 0,0 km/h (0 Bft)
15.12.2015 07:50 -1,3 C -1,5 C 86 % 1024,9 hPa 0,0 mm 0,3 km/h (0 Bft) N-NW 337 -3,3 C 0,0 km/h (0 Bft)
15.12.2015 07:55 -1,1 C -1,4 C 86 % 1025,2 hPa 0,0 mm 0,0 km/h (0 Bft) N-NW 337 -3,1 C 0,0 km/h (0 Bft)
15.12.2015 08:00 -1,3 C -1,6 C 86 % 1025,2 hPa 0,0 mm 0,0 km/h (0 Bft) N-NW 337 -3,3 C 0,0 km/h (0 Bft)
15.12.2015 08:05 -1,3 C -1,6 C 86 % 1025,2 hPa 0,0 mm 0,0 km/h (0 Bft) N 360 -3,3 C 0,0 km/h (0 Bft)
15.12.2015 08:10 -1,0 C -1,4 C 86 % 1025,2 hPa 0,0 mm 0,0 km/h (0 Bft) NO 45 -3,0 C 0,0 km/h (0 Bft)
15.12.2015 08:15 -1,2 C -1,5 C 86 % 1025,4 hPa 0,0 mm 0,0 km/h (0 Bft) N-NO 22 -3,2 C 0,0 km/h (0 Bft)
15.12.2015 08:20 -0,9 C -1,3 C 86 % 1025,4 hPa 0,0 mm 1,0 km/h (0 Bft) N-NW 337 -2,9 C 5,2 km/h (1 Bft)
15.12.2015 08:25 -1,3 C -1,6 C 86 % 1025,4 hPa 0,0 mm 1,3 km/h (1 Bft) NW 315 -3,3 C 0,0 km/h (0 Bft)
15.12.2015 08:30 -0,9 C -1,3 C 86 % 1025,4 hPa 0,0 mm 1,6 km/h (1 Bft) N-NW 337 -2,9 C 10,6 km/h (2 Bft)
15.12.2015 08:35 -1,1 C -1,4 C 86 % 1026,0 hPa 0,0 mm 1,3 km/h (1 Bft) NW 315 -3,1 C 6,0 km/h (2 Bft)
15.12.2015 08:40 -1,1 C -1,3 C 86 % 1026,0 hPa 0,0 mm 0,8 km/h (0 Bft) O-NO 67 -3,1 C 0,0 km/h (0 Bft)
15.12.2015 08:45 -1,2 C -1,4 C 85 % 1026,0 hPa 0,0 mm 0,3 km/h (0 Bft) O-NO 67 -3,4 C 0,0 km/h (0 Bft)
15.12.2015 08:50 -1,0 C -1,2 C 81 % 1026,0 hPa 0,0 mm 0,0 km/h (0 Bft) O-NO 67 -3,8 C 0,0 km/h (0 Bft)
15.12.2015 08:55 -1,0 C -1,0 C 81 % 1026,2 hPa 0,0 mm 0,0 km/h (0 Bft) O-NO 67 -3,8 C 0,0 km/h (0 Bft)
15.12.2015 09:00 -0,8 C -1,0 C 86 % 1026,2 hPa 0,0 mm 0,0 km/h (0 Bft) NO 45 -2,8 C 0,0 km/h (0 Bft)
15.12.2015 09:05 -0,8 C -0,8 C 81 % 1026,2 hPa 0,0 mm 0,0 km/h (0 Bft) O-NO 67 -3,6 C 0,0 km/h (0 Bft)
15.12.2015 09:10 -0,5 C -0,6 C 81 % 1026,2 hPa 0,0 mm 0,0 km/h (0 Bft) O-SO 112 -3,3 C 0,0 km/h (0 Bft)
15.12.2015 09:15 -0,4 C -0,3 C 81 % 1026,3 hPa 0,0 mm 0,0 km/h (0 Bft) O-SO 112 -3,3 C 0,0 km/h (0 Bft)
15.12.2015 09:20 -0,1 C 0,0 C 81 % 1026,3 hPa 0,0 mm 0,0 km/h (0 Bft) NO 45 -3,0 C 0,0 km/h (0 Bft)
15.12.2015 09:25 0,0 C 0,3 C 81 % 1026,3 hPa 0,0 mm 0,0 km/h (0 Bft) O-SO 112 -2,9 C 0,0 km/h (0 Bft)
15.12.2015 09:30 0,2 C 0,6 C 81 % 1026,3 hPa 0,0 mm 0,3 km/h (0 Bft) O-NO 67 -2,7 C 0,0 km/h (0 Bft)
15.12.2015 09:35 0,6 C 0,8 C 81 % 1026,4 hPa 0,0 mm 0,3 km/h (0 Bft) NO 45 -2,3 C 0,0 km/h (0 Bft)
15.12.2015 09:40 0,8 C 0,9 C 81 % 1026,4 hPa 0,0 mm 0,0 km/h (0 Bft) O-NO 67 -2,1 C 0,0 km/h (0 Bft)
15.12.2015 09:45 0,9 C 0,9 C 81 % 1026,4 hPa 0,0 mm 0,0 km/h (0 Bft) NO 45 -2,0 C 0,0 km/h (0 Bft)
15.12.2015 09:50 1,0 C 1,0 C 85 % 1026,4 hPa 0,0 mm 0,0 km/h (0 Bft) NO 45 -1,2 C 0,0 km/h (0 Bft)
15.12.2015 09:55 1,0 C 1,3 C 81 % 1026,6 hPa 0,0 mm 0,0 km/h (0 Bft) O-SO 112 -1,9 C 0,0 km/h (0 Bft)
15.12.2015 10:00 1,2 C 1,6 C 80 % 1026,6 hPa 0,0 mm 0,0 km/h (0 Bft) O-NO 67 -1,9 C 0,0 km/h (0 Bft)
15.12.2015 10:05 1,4 C 2,0 C 80 % 1026,6 hPa 0,0 mm 1,0 km/h (0 Bft) N-NW 337 -1,7 C 6,0 km/h (2 Bft)
15.12.2015 10:10 1,4 C 2,2 C 80 % 1026,6 hPa 0,0 mm 1,0 km/h (0 Bft) O-NO 67 -1,7 C 0,0 km/h (0 Bft)
15.12.2015 10:15 1,4 C 2,3 C 80 % 1026,8 hPa 0,0 mm 0,5 km/h (0 Bft) NO 45 -1,7 C 0,0 km/h (0 Bft)
15.12.2015 10:20 1,4 C 2,2 C 80 % 1026,8 hPa 0,0 mm 0,0 km/h (0 Bft) O-NO 67 -1,7 C 0,0 km/h (0 Bft)
15.12.2015 10:25 1,4 C 2,2 C 79 % 1026,8 hPa 0,0 mm 0,0 km/h (0 Bft) O-NO 67 -1,8 C 0,0 km/h (0 Bft)
15.12.2015 10:30 1,7 C 2,2 C 79 % 1026,8 hPa 0,0 mm 0,0 km/h (0 Bft) O 90 -1,5 C 0,0 km/h (0 Bft)
15.12.2015 10:35 1,8 C 2,2 C 82 % 1026,7 hPa 0,0 mm 0,0 km/h (0 Bft) NO 45 -0,9 C 0,0 km/h (0 Bft)
15.12.2015 10:40 1,9 C 2,2 C 79 % 1026,7 hPa 0,0 mm 0,0 km/h (0 Bft) NO 45 -1,3 C 0,0 km/h (0 Bft)
15.12.2015 10:45 2,0 C 2,4 C 81 % 1026,7 hPa 0,0 mm 0,0 km/h (0 Bft) NO 45 -0,9 C 0,0 km/h (0 Bft)
15.12.2015 10:50 2,1 C 2,7 C 79 % 1026,7 hPa 0,0 mm 0,0 km/h (0 Bft) NO 45 -1,2 C 0,0 km/h (0 Bft)
15.12.2015 10:55 2,3 C 2,8 C 79 % 1026,7 hPa 0,0 mm 0,0 km/h (0 Bft) NO 45 -1,0 C 0,0 km/h (0 Bft)
15.12.2015 11:00 2,6 C 3,2 C 78 % 1026,7 hPa 0,0 mm 0,0 km/h (0 Bft) NO 45 -0,8 C 0,0 km/h (0 Bft)
15.12.2015 11:05 2,8 C 3,4 C 78 % 1026,7 hPa 0,0 mm 0,0 km/h (0 Bft) NO 45 -0,6 C 0,0 km/h (0 Bft)
15.12.2015 11:10 3,0 C 3,6 C 79 % 1026,7 hPa 0,0 mm 0,0 km/h (0 Bft) NO 45 -0,3 C 0,0 km/h (0 Bft)
15.12.2015 11:15 3,0 C 3,8 C 79 % 1026,8 hPa 0,0 mm 0,0 km/h (0 Bft) NO 45 -0,3 C 0,0 km/h (0 Bft)
15.12.2015 11:20 3,3 C 4,0 C 79 % 1026,8 hPa 0,0 mm 0,0 km/h (0 Bft) O-NO 67 0,0 C 0,0 km/h (0 Bft)
15.12.2015 11:25 3,7 C 4,2 C 77 % 1026,8 hPa 0,0 mm 0,0 km/h (0 Bft) O 90 0,1 C 0,0 km/h (0 Bft)
15.12.2015 11:30 3,6 C 4,3 C 78 % 1026,8 hPa 0,0 mm 0,0 km/h (0 Bft) S-SO 157 0,1 C 0,0 km/h (0 Bft)
15.12.2015 11:35 4,1 C 4,4 C 78 % 1026,7 hPa 0,0 mm 1,0 km/h (0 Bft) SW 225 0,6 C 6,7 km/h (2 Bft)
15.12.2015 11:40 5,0 C 5,3 C 77 % 1026,7 hPa 0,0 mm 2,3 km/h (1 Bft) W-SW 247 1,3 C 4,1 km/h (1 Bft)
15.12.2015 11:45 5,1 C 5,7 C 75 % 1026,7 hPa 0,0 mm 2,8 km/h (1 Bft) W 270 1,0 C 3,4 km/h (1 Bft)
15.12.2015 11:50 5,3 C 6,0 C 74 % 1026,7 hPa 0,0 mm 2,1 km/h (1 Bft) W 270 1,0 C 3,6 km/h (1 Bft)
15.12.2015 11:55 5,1 C 6,1 C 73 % 1026,7 hPa 0,0 mm 1,3 km/h (1 Bft) NW 315 0,7 C 0,0 km/h (0 Bft)
15.12.2015 12:00 5,2 C 6,2 C 73 % 1026,7 hPa 0,0 mm 1,3 km/h (1 Bft) W 270 0,8 C 0,0 km/h (0 Bft)
15.12.2015 12:05 5,5 C 6,4 C 72 % 1026,7 hPa 0,0 mm 2,3 km/h (1 Bft) W 270 0,9 C 7,0 km/h (2 Bft)
15.12.2015 12:10 6,0 C 6,8 C 69 % 1026,7 hPa 0,0 mm 4,9 km/h (1 Bft) W-SW 247 0,8 C 17,1 km/h (3 Bft)
15.12.2015 12:15 6,1 C 6,8 C 69 % 1026,7 hPa 0,0 mm 6,0 km/h (2 Bft) W-SW 247 0,8 C 4,7 km/h (1 Bft)
15.12.2015 12:20 6,1 C 7,1 C 68 % 1026,7 hPa 0,0 mm 5,2 km/h (1 Bft) W 270 0,6 C 7,3 km/h (2 Bft)
15.12.2015 12:25 6,3 C 7,1 C 67 % 1026,7 hPa 0,0 mm 4,4 km/h (1 Bft) W-SW 247 0,6 C 5,4 km/h (1 Bft)
15.12.2015 12:30 6,5 C 7,4 C 66 % 1026,7 hPa 0,0 mm 4,7 km/h (1 Bft) W 270 0,6 C 11,1 km/h (2 Bft)
15.12.2015 12:33 6,5 C 7,6 C 65 % 1026,7 hPa 0,0 mm 4,4 km/h (1 Bft) W-SW 247 0,4 C 5,2 km/h (1 Bft)
15.12.2015 12:35 6,5 C 7,6 C 65 % 1026,7 hPa 0,0 mm 4,4 km/h (1 Bft) W-SW 247 0,4 C 5,2 km/h (1 Bft)
15.12.2015 12:40 6,6 C 7,7 C 65 % 1026,7 hPa 0,0 mm 4,4 km/h (1 Bft) W-SW 247 0,5 C 9,6 km/h (2 Bft)
15.12.2015 12:45 6,8 C 7,9 C 65 % 1026,7 hPa 0,0 mm 4,1 km/h (1 Bft) W-SW 247 0,7 C 7,3 km/h (2 Bft)
15.12.2015 12:50 7,2 C 8,3 C 64 % 1026,7 hPa 0,0 mm 4,9 km/h (1 Bft) W 270 0,9 C 11,7 km/h (2 Bft)
15.12.2015 12:55 7,5 C 8,6 C 64 % 1026,5 hPa 0,0 mm 4,9 km/h (1 Bft) W-SW 247 1,1 C 4,7 km/h (1 Bft)
15.12.2015 13:00 7,9 C 9,2 C 63 % 1026,5 hPa 0,0 mm 5,7 km/h (1 Bft) W 270 1,3 C 6,5 km/h (2 Bft)
15.12.2015 13:05 8,2 C 9,5 C 64 % 1026,5 hPa 0,0 mm 5,7 km/h (1 Bft) W 270 1,8 C 17,6 km/h (3 Bft)
15.12.2015 13:10 8,2 C 9,8 C 63 % 1026,5 hPa 0,0 mm 6,2 km/h (2 Bft) W 270 1,6 C 12,9 km/h (3 Bft)
15.12.2015 13:15 8,2 C 9,7 C 63 % 1026,3 hPa 0,0 mm 6,7 km/h (2 Bft) W 270 1,6 C 10,1 km/h (2 Bft)
15.12.2015 13:20 8,2 C 9,3 C 63 % 1026,3 hPa 0,0 mm 7,3 km/h (2 Bft) N-NW 337 1,6 C 12,9 km/h (3 Bft)
15.12.2015 13:25 8,1 C 9,2 C 63 % 1026,3 hPa 0,0 mm 7,5 km/h (2 Bft) W-NW 292 1,5 C 7,3 km/h (2 Bft)
15.12.2015 13:30 8,1 C 9,2 C 63 % 1026,3 hPa 0,0 mm 6,7 km/h (2 Bft) W-SW 247 1,5 C 5,4 km/h (1 Bft)
15.12.2015 13:35 8,4 C 9,4 C 63 % 1026,7 hPa 0,0 mm 6,0 km/h (2 Bft) W-SW 247 1,8 C 6,0 km/h (2 Bft)
15.12.2015 13:40 8,4 C 9,6 C 63 % 1026,7 hPa 0,0 mm 5,7 km/h (1 Bft) W 270 1,8 C 4,7 km/h (1 Bft)
15.12.2015 13:45 8,3 C 9,5 C 63 % 1026,7 hPa 0,0 mm 5,7 km/h (1 Bft) W-NW 292 1,7 C 6,5 km/h (2 Bft)
15.12.2015 13:50 8,4 C 9,4 C 63 % 1026,7 hPa 0,0 mm 4,9 km/h (1 Bft) W 270 1,8 C 7,3 km/h (2 Bft)
15.12.2015 13:55 8,4 C 9,4 C 62 % 1026,5 hPa 0,0 mm 5,2 km/h (1 Bft) W 270 1,6 C 5,2 km/h (1 Bft)
15.12.2015 14:00 8,4 C 9,4 C 62 % 1026,5 hPa 0,0 mm 6,0 km/h (2 Bft) SW 225 1,6 C 9,3 km/h (2 Bft)
15.12.2015 14:05 8,3 C 9,4 C 62 % 1026,5 hPa 0,0 mm 4,9 km/h (1 Bft) W 270 1,5 C 2,8 km/h (1 Bft)
15.12.2015 14:10 8,0 C 9,1 C 62 % 1026,5 hPa 0,0 mm 4,9 km/h (1 Bft) W-SW 247 1,2 C 11,4 km/h (2 Bft)
15.12.2015 14:15 7,9 C 8,9 C 62 % 1026,7 hPa 0,0 mm 4,1 km/h (1 Bft) W 270 1,1 C 4,4 km/h (1 Bft)
15.12.2015 14:20 7,8 C 8,6 C 62 % 1026,7 hPa 0,0 mm 4,7 km/h (1 Bft) W-NW 292 1,0 C 6,2 km/h (2 Bft)
15.12.2015 14:25 7,8 C 8,5 C 62 % 1026,7 hPa 0,0 mm 3,9 km/h (1 Bft) W-NW 292 1,0 C 4,9 km/h (1 Bft)
15.12.2015 14:30 8,0 C 8,6 C 63 % 1026,7 hPa 0,0 mm 4,1 km/h (1 Bft) W 270 1,4 C 4,7 km/h (1 Bft)
15.12.2015 14:35 8,0 C 8,7 C 63 % 1026,7 hPa 0,0 mm 4,4 km/h (1 Bft) W-NW 292 1,4 C 11,9 km/h (2 Bft)
15.12.2015 14:40 8,1 C 8,8 C 62 % 1026,7 hPa 0,0 mm 6,2 km/h (2 Bft) W 270 1,3 C 10,9 km/h (2 Bft)
15.12.2015 14:45 8,1 C 8,7 C 62 % 1026,7 hPa 0,0 mm 6,7 km/h (2 Bft) SW 225 1,3 C 3,9 km/h (1 Bft)
15.12.2015 14:50 8,0 C 8,7 C 62 % 1026,7 hPa 0,0 mm 5,4 km/h (1 Bft) W-NW 292 1,2 C 6,7 km/h (2 Bft)
15.12.2015 14:55 8,0 C 8,6 C 62 % 1026,6 hPa 0,0 mm 5,4 km/h (1 Bft) W-SW 247 1,2 C 7,5 km/h (2 Bft)
15.12.2015 15:00 7,9 C 8,5 C 62 % 1026,6 hPa 0,0 mm 6,5 km/h (2 Bft) W 270 1,1 C 6,7 km/h (2 Bft)
15.12.2015 15:05 7,8 C 8,5 C 62 % 1026,6 hPa 0,0 mm 5,4 km/h (1 Bft) W-SW 247 1,0 C 7,8 km/h (2 Bft)
15.12.2015 15:10 7,7 C 8,3 C 63 % 1026,6 hPa 0,0 mm 3,9 km/h (1 Bft) W 270 1,1 C 8,5 km/h (2 Bft)
15.12.2015 15:15 7,7 C 8,3 C 63 % 1026,6 hPa 0,0 mm 5,2 km/h (1 Bft) W 270 1,1 C 8,0 km/h (2 Bft)
15.12.2015 15:20 7,6 C 8,2 C 63 % 1026,6 hPa 0,0 mm 6,0 km/h (2 Bft) W-NW 292 1,0 C 3,9 km/h (1 Bft)
15.12.2015 15:25 7,4 C 8,0 C 63 % 1026,6 hPa 0,0 mm 4,7 km/h (1 Bft) SW 225 0,8 C 2,6 km/h (1 Bft)
15.12.2015 15:30 7,1 C 7,7 C 63 % 1026,6 hPa 0,0 mm 3,1 km/h (1 Bft) SW 225 0,5 C 6,5 km/h (2 Bft)
15.12.2015 15:35 7,0 C 7,5 C 63 % 1026,5 hPa 0,0 mm 3,9 km/h (1 Bft) W-SW 247 0,4 C 6,5 km/h (2 Bft)
15.12.2015 15:40 6,9 C 7,2 C 63 % 1026,5 hPa 0,0 mm 5,7 km/h (1 Bft) SW 225 0,4 C 9,1 km/h (2 Bft)
15.12.2015 15:45 6,9 C 6,9 C 63 % 1026,5 hPa 0,0 mm 6,5 km/h (2 Bft) S 180 0,4 C 7,3 km/h (2 Bft)
15.12.2015 15:50 6,8 C 6,9 C 63 % 1026,5 hPa 0,0 mm 5,4 km/h (1 Bft) W-SW 247 0,3 C 5,2 km/h (1 Bft)
15.12.2015 15:55 6,5 C 6,7 C 63 % 1026,7 hPa 0,0 mm 4,1 km/h (1 Bft) W-SW 247 -0,0 C 4,4 km/h (1 Bft)
15.12.2015 16:00 6,4 C 6,4 C 63 % 1026,7 hPa 0,0 mm 4,4 km/h (1 Bft) S-SW 202 -0,1 C 7,0 km/h (2 Bft)
15.12.2015 16:05 6,3 C 6,2 C 63 % 1026,7 hPa 0,0 mm 5,2 km/h (1 Bft) S 180 -0,2 C 7,3 km/h (2 Bft)
15.12.2015 16:10 6,3 C 6,1 C 63 % 1026,7 hPa 0,0 mm 6,5 km/h (2 Bft) O 90 -0,2 C 8,8 km/h (2 Bft)
15.12.2015 16:15 6,2 C 5,9 C 63 % 1026,7 hPa 0,0 mm 7,3 km/h (2 Bft) SW 225 -0,3 C 9,8 km/h (2 Bft)
15.12.2015 16:20 6,3 C 6,1 C 64 % 1026,7 hPa 0,0 mm 6,7 km/h (2 Bft) W-SW 247 0,0 C 6,2 km/h (2 Bft)
15.12.2015 16:25 6,4 C 6,2 C 64 % 1026,7 hPa 0,0 mm 6,7 km/h (2 Bft) S 180 0,1 C 9,6 km/h (2 Bft)
15.12.2015 16:30 6,3 C 6,1 C 64 % 1026,7 hPa 0,0 mm 6,2 km/h (2 Bft) S 180 0,0 C 6,5 km/h (2 Bft)
15.12.2015 16:35 6,1 C 6,0 C 64 % 1026,6 hPa 0,0 mm 6,2 km/h (2 Bft) S-SW 202 -0,2 C 7,0 km/h (2 Bft)
15.12.2015 16:40 6,1 C 6,0 C 64 % 1026,6 hPa 0,0 mm 4,9 km/h (1 Bft) SW 225 -0,2 C 6,7 km/h (2 Bft)
15.12.2015 16:45 5,8 C 5,8 C 66 % 1026,6 hPa 0,0 mm 3,6 km/h (1 Bft) W-SW 247 -0,0 C 7,3 km/h (2 Bft)
15.12.2015 16:50 5,6 C 5,5 C 66 % 1026,6 hPa 0,0 mm 3,4 km/h (1 Bft) S 180 -0,2 C 0,0 km/h (0 Bft)
15.12.2015 16:55 4,8 C 5,2 C 66 % 1026,8 hPa 0,0 mm 3,1 km/h (1 Bft) S-SO 157 -1,0 C 0,0 km/h (0 Bft)
15.12.2015 17:00 4,0 C 4,1 C 67 % 1026,8 hPa 0,0 mm 0,5 km/h (0 Bft) S-SO 157 -1,6 C 0,0 km/h (0 Bft)
15.12.2015 17:05 4,5 C 4,2 C 69 % 1026,8 hPa 0,0 mm 0,5 km/h (0 Bft) S 180 -0,7 C 7,3 km/h (2 Bft)
15.12.2015 17:10 5,1 C 4,8 C 69 % 1026,8 hPa 0,0 mm 3,9 km/h (1 Bft) S-SW 202 -0,1 C 11,1 km/h (2 Bft)
15.12.2015 17:15 5,1 C 4,8 C 69 % 1026,9 hPa 0,0 mm 6,0 km/h (2 Bft) S 180 -0,1 C 8,0 km/h (2 Bft)
15.12.2015 17:20 4,8 C 4,8 C 69 % 1026,9 hPa 0,0 mm 5,2 km/h (1 Bft) S 180 -0,4 C 3,9 km/h (1 Bft)
15.12.2015 17:25 4,1 C 4,7 C 69 % 1026,9 hPa 0,0 mm 3,9 km/h (1 Bft) SW 225 -1,1 C 0,0 km/h (0 Bft)
15.12.2015 17:30 4,1 C 4,4 C 71 % 1026,9 hPa 0,0 mm 3,4 km/h (1 Bft) SO 135 -0,7 C 0,0 km/h (0 Bft)
15.12.2015 17:35 3,5 C 4,1 C 70 % 1027,1 hPa 0,0 mm 2,1 km/h (1 Bft) W 270 -1,4 C 0,0 km/h (0 Bft)
15.12.2015 17:40 2,7 C 3,1 C 72 % 1027,1 hPa 0,0 mm 0,0 km/h (0 Bft) SO 135 -1,8 C 0,0 km/h (0 Bft)
15.12.2015 17:45 2,6 C 2,6 C 72 % 1027,1 hPa 0,0 mm 0,0 km/h (0 Bft) SO 135 -1,9 C 0,0 km/h (0 Bft)
15.12.2015 17:50 2,3 C 2,3 C 72 % 1027,1 hPa 0,0 mm 0,0 km/h (0 Bft) SO 135 -2,2 C 0,0 km/h (0 Bft)
15.12.2015 17:55 2,1 C 2,0 C 73 % 1027,3 hPa 0,0 mm 0,0 km/h (0 Bft) SO 135 -2,2 C 0,0 km/h (0 Bft)
15.12.2015 18:00 2,2 C 2,0 C 74 % 1027,3 hPa 0,0 mm 0,0 km/h (0 Bft) SO 135 -1,9 C 0,0 km/h (0 Bft)
15.12.2015 18:05 2,0 C 1,8 C 74 % 1027,3 hPa 0,0 mm 0,0 km/h (0 Bft) SO 135 -2,1 C 0,0 km/h (0 Bft)
15.12.2015 18:10 1,7 C 1,5 C 75 % 1027,3 hPa 0,0 mm 0,0 km/h (0 Bft) SO 135 -2,2 C 0,0 km/h (0 Bft)
15.12.2015 18:15 1,7 C 1,4 C 75 % 1027,3 hPa 0,0 mm 0,0 km/h (0 Bft) S-SO 157 -2,2 C 0,0 km/h (0 Bft)
15.12.2015 18:20 2,5 C 2,1 C 75 % 1027,3 hPa 0,0 mm 0,0 km/h (0 Bft) S-SO 157 -1,5 C 0,0 km/h (0 Bft)
15.12.2015 18:25 2,7 C 2,2 C 78 % 1027,3 hPa 0,0 mm 0,0 km/h (0 Bft) SO 135 -0,7 C 0,0 km/h (0 Bft)
15.12.2015 18:30 1,8 C 1,6 C 77 % 1027,3 hPa 0,0 mm 0,3 km/h (0 Bft) NW 315 -1,8 C 0,0 km/h (0 Bft)
15.12.2015 18:34 1,8 C 1,5 C 77 % 1027,3 hPa 0,0 mm 0,3 km/h (0 Bft) NW 315 -1,8 C 0,0 km/h (0 Bft)
15.12.2015 18:40 1,5 C 1,3 C 77 % 1027,3 hPa 0,0 mm 0,0 km/h (0 Bft) NW 315 -2,1 C 0,0 km/h (0 Bft)
15.12.2015 18:45 1,3 C 1,1 C 77 % 1027,3 hPa 0,0 mm 0,0 km/h (0 Bft) NW 315 -2,3 C 0,0 km/h (0 Bft)
15.12.2015 18:50 1,2 C 1,0 C 78 % 1027,3 hPa 0,0 mm 0,0 km/h (0 Bft) NW 315 -2,2 C 0,0 km/h (0 Bft)
15.12.2015 18:55 1,2 C 1,0 C 78 % 1027,2 hPa 0,0 mm 0,0 km/h (0 Bft) NW 315 -2,2 C 0,0 km/h (0 Bft)
15.12.2015 19:00 1,2 C 1,0 C 78 % 1027,2 hPa 0,0 mm 0,0 km/h (0 Bft) NW 315 -2,2 C 0,0 km/h (0 Bft)
15.12.2015 19:05 1,3 C 1,1 C 78 % 1027,2 hPa 0,0 mm 0,0 km/h (0 Bft) NW 315 -2,1 C 0,0 km/h (0 Bft)
15.12.2015 19:10 1,3 C 1,2 C 79 % 1027,2 hPa 0,0 mm 0,0 km/h (0 Bft) W-NW 292 -1,9 C 0,0 km/h (0 Bft)
15.12.2015 19:15 1,4 C 1,3 C 79 % 1027,3 hPa 0,0 mm 0,0 km/h (0 Bft) S-SO 157 -1,8 C 0,0 km/h (0 Bft)
15.12.2015 19:20 1,7 C 1,9 C 77 % 1027,3 hPa 0,0 mm 0,3 km/h (0 Bft) SO 135 -1,9 C 3,1 km/h (1 Bft)
15.12.2015 19:25 2,5 C 2,5 C 77 % 1027,3 hPa 0,0 mm 0,3 km/h (0 Bft) S 180 -1,1 C 0,0 km/h (0 Bft)
15.12.2015 19:30 2,6 C 2,4 C 79 % 1027,3 hPa 0,0 mm 0,3 km/h (0 Bft) NO 45 -0,7 C 0,0 km/h (0 Bft)
15.12.2015 19:35 2,1 C 2,1 C 78 % 1027,5 hPa 0,0 mm 0,0 km/h (0 Bft) NO 45 -1,3 C 0,0 km/h (0 Bft)
15.12.2015 19:40 1,9 C 1,9 C 78 % 1027,5 hPa 0,0 mm 0,0 km/h (0 Bft) NO 45 -1,5 C 0,0 km/h (0 Bft)
15.12.2015 19:45 1,8 C 1,7 C 78 % 1027,5 hPa 0,0 mm 0,0 km/h (0 Bft) N-NO 22 -1,6 C 0,0 km/h (0 Bft)
15.12.2015 19:50 1,9 C 1,8 C 78 % 1027,5 hPa 0,0 mm 0,0 km/h (0 Bft) NW 315 -1,5 C 0,0 km/h (0 Bft)
15.12.2015 19:55 2,1 C 1,9 C 79 % 1027,6 hPa 0,0 mm 0,3 km/h (0 Bft) W-NW 292 -1,2 C 4,7 km/h (1 Bft)
15.12.2015 20:00 1,9 C 1,8 C 78 % 1027,6 hPa 0,0 mm 0,5 km/h (0 Bft) NW 315 -1,5 C 0,0 km/h (0 Bft)
15.12.2015 20:05 1,7 C 1,7 C 78 % 1027,6 hPa 0,0 mm 0,5 km/h (0 Bft) N-NW 337 -1,7 C 0,0 km/h (0 Bft)
15.12.2015 20:10 1,5 C 1,5 C 78 % 1027,6 hPa 0,0 mm 0,3 km/h (0 Bft) N-NO 22 -1,9 C 0,0 km/h (0 Bft)
15.12.2015 20:15 1,4 C 1,3 C 79 % 1027,8 hPa 0,0 mm 0,3 km/h (0 Bft) N-NO 22 -1,8 C 0,0 km/h (0 Bft)
15.12.2015 20:20 1,4 C 1,3 C 79 % 1027,8 hPa 0,0 mm 0,0 km/h (0 Bft) NW 315 -1,8 C 0,0 km/h (0 Bft)
15.12.2015 20:25 1,6 C 1,4 C 79 % 1027,8 hPa 0,0 mm 0,0 km/h (0 Bft) N-NO 22 -1,6 C 0,0 km/h (0 Bft)
15.12.2015 20:30 1,4 C 1,2 C 79 % 1027,8 hPa 0,0 mm 0,0 km/h (0 Bft) N-NW 337 -1,8 C 0,0 km/h (0 Bft)
15.12.2015 20:35 1,5 C 1,3 C 79 % 1027,6 hPa 0,0 mm 0,0 km/h (0 Bft) N-NW 337 -1,7 C 0,0 km/h (0 Bft)
15.12.2015 20:40 1,3 C 1,2 C 79 % 1027,6 hPa 0,0 mm 0,0 km/h (0 Bft) N-NO 22 -1,9 C 0,0 km/h (0 Bft)
15.12.2015 20:45 1,4 C 1,3 C 79 % 1027,6 hPa 0,0 mm 0,0 km/h (0 Bft) N-NO 22 -1,8 C 0,0 km/h (0 Bft)
15.12.2015 20:50 1,3 C 1,2 C 79 % 1027,6 hPa 0,0 mm 0,0 km/h (0 Bft) N-NO 22 -1,9 C 0,0 km/h (0 Bft)
15.12.2015 20:55 1,4 C 1,3 C 79 % 1027,5 hPa 0,0 mm 0,0 km/h (0 Bft) N-NO 22 -1,8 C 0,0 km/h (0 Bft)
15.12.2015 21:00 1,6 C 1,5 C 80 % 1027,5 hPa 0,0 mm 0,0 km/h (0 Bft) N-NO 22 -1,5 C 0,0 km/h (0 Bft)
15.12.2015 21:05 1,7 C 1,6 C 80 % 1027,5 hPa 0,0 mm 0,0 km/h (0 Bft) N-NO 22 -1,4 C 0,0 km/h (0 Bft)
15.12.2015 21:10 1,8 C 1,8 C 78 % 1027,5 hPa 0,0 mm 0,0 km/h (0 Bft) N-NO 22 -1,6 C 0,0 km/h (0 Bft)
15.12.2015 21:15 2,1 C 2,2 C 78 % 1027,5 hPa 0,0 mm 0,0 km/h (0 Bft) S-SO 157 -1,3 C 0,0 km/h (0 Bft)
15.12.2015 21:20 2,5 C 2,4 C 80 % 1027,5 hPa 0,0 mm 0,0 km/h (0 Bft) SO 135 -0,6 C 0,0 km/h (0 Bft)
15.12.2015 21:25 2,3 C 2,4 C 80 % 1027,5 hPa 0,0 mm 0,3 km/h (0 Bft) N-NW 337 -0,8 C 2,6 km/h (1 Bft)
15.12.2015 21:30 2,2 C 2,3 C 79 % 1027,5 hPa 0,0 mm 0,5 km/h (0 Bft) W-NW 292 -1,1 C 0,0 km/h (0 Bft)
15.12.2015 21:35 2,2 C 2,2 C 79 % 1027,5 hPa 0,0 mm 0,3 km/h (0 Bft) W-NW 292 -1,1 C 0,0 km/h (0 Bft)
15.12.2015 21:40 2,0 C 2,2 C 79 % 1027,5 hPa 0,0 mm 0,0 km/h (0 Bft) N-NW 337 -1,2 C 0,0 km/h (0 Bft)
15.12.2015 21:45 2,0 C 2,1 C 79 % 1027,5 hPa 0,0 mm 0,0 km/h (0 Bft) N-NW 337 -1,2 C 0,0 km/h (0 Bft)
15.12.2015 21:50 1,8 C 1,9 C 79 % 1027,5 hPa 0,0 mm 0,0 km/h (0 Bft) N-NW 337 -1,4 C 0,0 km/h (0 Bft)
15.12.2015 21:55 1,7 C 1,7 C 79 % 1028,0 hPa 0,0 mm 0,0 km/h (0 Bft) N-NW 337 -1,5 C 0,0 km/h (0 Bft)
15.12.2015 22:00 1,6 C 1,6 C 79 % 1028,0 hPa 0,0 mm 0,0 km/h (0 Bft) N-NW 337 -1,6 C 0,0 km/h (0 Bft)
15.12.2015 22:05 1,7 C 1,6 C 79 % 1028,0 hPa 0,0 mm 0,0 km/h (0 Bft) N-NW 337 -1,5 C 0,0 km/h (0 Bft)
15.12.2015 22:10 1,6 C 1,5 C 79 % 1028,0 hPa 0,0 mm 0,0 km/h (0 Bft) N 360 -1,6 C 0,0 km/h (0 Bft)
15.12.2015 22:15 1,7 C 1,6 C 79 % 1027,3 hPa 0,0 mm 0,0 km/h (0 Bft) N 360 -1,5 C 0,0 km/h (0 Bft)
15.12.2015 22:20 1,5 C 1,4 C 79 % 1027,3 hPa 0,0 mm 0,0 km/h (0 Bft) N 360 -1,7 C 0,0 km/h (0 Bft)
15.12.2015 22:25 1,4 C 1,3 C 79 % 1027,3 hPa 0,0 mm 0,0 km/h (0 Bft) N 360 -1,8 C 0,0 km/h (0 Bft)
15.12.2015 22:30 1,4 C 1,3 C 79 % 1027,3 hPa 0,0 mm 0,0 km/h (0 Bft) N 360 -1,8 C 0,0 km/h (0 Bft)
15.12.2015 22:35 1,2 C 1,1 C 79 % 1027,3 hPa 0,0 mm 0,0 km/h (0 Bft) N 360 -2,0 C 0,0 km/h (0 Bft)
15.12.2015 22:40 1,2 C 1,1 C 79 % 1027,3 hPa 0,0 mm 0,0 km/h (0 Bft) N-NW 337 -2,0 C 0,0 km/h (0 Bft)
15.12.2015 22:45 1,4 C 1,2 C 80 % 1027,3 hPa 0,0 mm 0,0 km/h (0 Bft) N-NW 337 -1,7 C 0,0 km/h (0 Bft)
15.12.2015 22:50 1,5 C 1,3 C 80 % 1027,3 hPa 0,0 mm 0,0 km/h (0 Bft) N-NW 337 -1,6 C 0,0 km/h (0 Bft)
15.12.2015 22:55 1,4 C 1,2 C 80 % 1027,5 hPa 0,0 mm 0,0 km/h (0 Bft) N-NW 337 -1,7 C 0,0 km/h (0 Bft)
15.12.2015 23:00 1,2 C 1,0 C 80 % 1027,5 hPa 0,0 mm 0,0 km/h (0 Bft) W 270 -1,9 C 0,0 km/h (0 Bft)
15.12.2015 23:05 1,4 C 1,2 C 80 % 1027,5 hPa 0,0 mm 0,0 km/h (0 Bft) N-NW 337 -1,7 C 0,0 km/h (0 Bft)
15.12.2015 23:10 1,3 C 1,1 C 80 % 1027,5 hPa 0,0 mm 0,0 km/h (0 Bft) N-NW 337 -1,8 C 0,0 km/h (0 Bft)
15.12.2015 23:15 1,1 C 0,9 C 80 % 1027,6 hPa 0,0 mm 0,0 km/h (0 Bft) W 270 -2,0 C 0,0 km/h (0 Bft)
15.12.2015 23:20 0,9 C 0,8 C 80 % 1027,6 hPa 0,0 mm 0,0 km/h (0 Bft) W-SW 247 -2,2 C 0,0 km/h (0 Bft)
15.12.2015 23:25 0,7 C 0,6 C 80 % 1027,6 hPa 0,0 mm 0,0 km/h (0 Bft) O-NO 67 -2,3 C 0,0 km/h (0 Bft)
15.12.2015 23:30 0,7 C 0,5 C 81 % 1027,6 hPa 0,0 mm 0,0 km/h (0 Bft) O-NO 67 -2,2 C 0,0 km/h (0 Bft)
15.12.2015 23:35 0,8 C 0,5 C 82 % 1027,7 hPa 0,0 mm 0,0 km/h (0 Bft) O-NO 67 -1,9 C 0,0 km/h (0 Bft)
15.12.2015 23:40 0,9 C 0,5 C 82 % 1027,7 hPa 0,0 mm 0,0 km/h (0 Bft) O-NO 67 -1,8 C 0,0 km/h (0 Bft)
15.12.2015 23:45 0,9 C 0,5 C 82 % 1027,7 hPa 0,0 mm 0,0 km/h (0 Bft) O-NO 67 -1,8 C 0,0 km/h (0 Bft)
15.12.2015 23:50 0,7 C 0,4 C 82 % 1027,7 hPa 0,0 mm 0,0 km/h (0 Bft) O-NO 67 -2,0 C 0,0 km/h (0 Bft)
15.12.2015 23:55 0,6 C 0,3 C 82 % 1027,9 hPa 0,0 mm 0,0 km/h (0 Bft) O-NO 67 -2,1 C 0,0 km/h (0 Bft)
_ Min-Zeit 04:30 04:35 15:05 00:10 - 23:55 - - 00:10 23:55
Minimum _ -3,5 C -3,6 C 62 % 1024,6 hPa - 0,0 km/h (0 Bft) - - -5,9 C 0,0 km/h (0 Bft)
_ Max-Zeit 14:00 13:10 06:05 22:10 23:55 13:25 - - 13:05 13:05
Maximum _ 8,4 C 9,8 C 88 % 1028,0 hPa 0,0 mm 7,5 km/h
W-NW (2 Bft)
- - 1,8 C 17,6 km/h
W (3 Bft)
Durchschnitt _ 1,4 C 1,5 C 78 % 1026,2 hPa #0,0 mm 1,3 km/h (1 Bft) W - -2,1 C 1,9 km/h (1 Bft)